Time;durP1;ratioP1;P1;durP2;ratioP2;P2;SDS_P1;SDS_P2;PMS_P1;PMS_P2;Temp;Humidity;BMP_temperature;BMP_pressure;BME280_temperature;BME280_humidity;BME280_pressure;Samples;Min_cycle;Max_cycle;Signal;HPM_P1;HPM_P2
2021/01/08 00:02:19;;;;;;;7.83;4.93;;;;;;;;;;5038214;28;20207;-67
2021/01/08 00:04:45;;;;;;;5.20;4.10;;;;;;;;;;5017555;28;20251;-68
2021/01/08 00:07:11;;;;;;;6.50;4.77;;;;;;;;;;5031225;28;20178;-68
2021/01/08 00:09:36;;;;;;;5.67;4.27;;;;;;;;;;5029784;28;20209;-68
2021/01/08 00:12:01;;;;;;;5.13;4.33;;;;;;;;;;5028046;28;20677;-68
2021/01/08 00:14:26;;;;;;;4.90;4.40;;;;;;;;;;5040660;28;20192;-67
2021/01/08 00:16:51;;;;;;;5.47;3.67;;;;;;;;;;5030227;28;20543;-67
2021/01/08 00:19:17;;;;;;;5.13;4.43;;;;;;;;;;5034255;28;20185;-67
2021/01/08 00:21:42;;;;;;;5.43;4.30;;;;;;;;;;5038097;28;20795;-68
2021/01/08 00:24:08;;;;;;;4.27;3.63;;;;;;;;;;5035670;28;20221;-67
2021/01/08 00:26:33;;;;;;;4.53;3.77;;;;;;;;;;5040300;28;20243;-68
2021/01/08 00:28:58;;;;;;;5.50;3.70;;;;;;;;;;5032271;28;20969;-68
2021/01/08 00:31:24;;;;;;;5.23;3.57;;;;;;;;;;5031894;28;20223;-67
2021/01/08 00:33:49;;;;;;;4.63;3.80;;;;;;;;;;5014711;28;20209;-68
2021/01/08 00:36:14;;;;;;;4.53;3.20;;;;;;;;;;5033202;28;20697;-68
2021/01/08 00:38:39;;;;;;;5.83;3.40;;;;;;;;;;5026956;28;20178;-67
2021/01/08 00:41:04;;;;;;;3.90;3.13;;;;;;;;;;5028863;28;20212;-68
2021/01/08 00:43:29;;;;;;;3.87;3.47;;;;;;;;;;5026650;28;21462;-67
2021/01/08 00:45:54;;;;;;;3.70;2.90;;;;;;;;;;5026847;28;20206;-68
2021/01/08 00:48:20;;;;;;;4.28;3.28;;;;;;;;;;5025837;28;20205;-68
2021/01/08 00:50:45;;;;;;;4.27;2.80;;;;;;;;;;5030670;28;20287;-67
2021/01/08 00:53:10;;;;;;;4.23;3.10;;;;;;;;;;5029351;28;20670;-68
2021/01/08 00:55:35;;;;;;;3.47;3.07;;;;;;;;;;5015203;28;20319;-68
2021/01/08 00:58:00;;;;;;;3.47;2.53;;;;;;;;;;5032322;28;20559;-67
2021/01/08 01:00:26;;;;;;;3.23;2.93;;;;;;;;;;5037449;28;20228;-68
2021/01/08 01:02:51;;;;;;;5.17;2.93;;;;;;;;;;5032335;28;20205;-68
2021/01/08 01:05:16;;;;;;;5.37;2.87;;;;;;;;;;5033492;28;20205;-67
2021/01/08 01:07:41;;;;;;;3.67;2.90;;;;;;;;;;5030533;28;20660;-67
2021/01/08 01:10:06;;;;;;;3.50;2.77;;;;;;;;;;5036921;28;20178;-68
2021/01/08 01:12:32;;;;;;;6.07;2.80;;;;;;;;;;5027125;28;20190;-67
2021/01/08 01:14:57;;;;;;;3.05;2.30;;;;;;;;;;5026808;28;20208;-67
2021/01/08 01:17:22;;;;;;;3.17;2.67;;;;;;;;;;5029425;28;20186;-67
2021/01/08 01:19:47;;;;;;;2.73;2.30;;;;;;;;;;5028752;28;20694;-67
2021/01/08 01:22:12;;;;;;;2.93;1.90;;;;;;;;;;5013059;28;548630;-67
2021/01/08 01:24:37;;;;;;;2.30;2.00;;;;;;;;;;5028793;28;20239;-67
2021/01/08 01:27:03;;;;;;;2.03;1.83;;;;;;;;;;5030170;28;20184;-68
2021/01/08 01:29:28;;;;;;;2.20;1.80;;;;;;;;;;5036547;28;20595;-68
2021/01/08 01:31:53;;;;;;;1.90;1.73;;;;;;;;;;5041981;28;21549;-67
2021/01/08 01:34:19;;;;;;;2.30;1.80;;;;;;;;;;5041054;28;20178;-68
2021/01/08 01:36:47;;;;;;;1.60;1.50;;;;;;;;;;5037842;28;20275;-68
2021/01/08 01:39:13;;;;;;;2.83;1.27;;;;;;;;;;5029508;28;20186;-68
2021/01/08 01:41:39;;;;;;;2.13;1.83;;;;;;;;;;5030048;28;20178;-68
2021/01/08 01:44:04;;;;;;;1.97;1.60;;;;;;;;;;5031588;28;20757;-67
2021/01/08 01:46:30;;;;;;;2.27;1.30;;;;;;;;;;5032342;28;20277;-68
2021/01/08 01:48:55;;;;;;;3.23;1.70;;;;;;;;;;5029082;28;20196;-68
2021/01/08 01:51:20;;;;;;;2.67;1.70;;;;;;;;;;5028535;28;20194;-68
2021/01/08 01:53:47;;;;;;;3.50;2.03;;;;;;;;;;5017038;28;20189;-67
2021/01/08 01:56:12;;;;;;;2.60;2.20;;;;;;;;;;5041023;28;20174;-67
2021/01/08 01:58:37;;;;;;;2.07;1.77;;;;;;;;;;5028773;28;20728;-68
2021/01/08 02:01:02;;;;;;;5.17;2.87;;;;;;;;;;5036689;28;20178;-67
2021/01/08 02:03:43;;;;;;;2.97;2.23;;;;;;;;;;5030877;28;21896;-67
2021/01/08 02:06:10;;;;;;;2.90;2.60;;;;;;;;;;5031729;28;20203;-68
2021/01/08 02:08:37;;;;;;;3.90;2.63;;;;;;;;;;5029018;28;20610;-67
2021/01/08 02:11:08;;;;;;;2.87;2.07;;;;;;;;;;5028729;28;20242;-67
2021/01/08 02:13:41;;;;;;;3.10;2.30;;;;;;;;;;5033955;28;20221;-67
2021/01/08 02:16:07;;;;;;;3.10;2.10;;;;;;;;;;5028585;28;20209;-68
2021/01/08 02:18:32;;;;;;;2.40;2.20;;;;;;;;;;5033314;28;20441;-67
2021/01/08 02:21:00;;;;;;;2.77;2.30;;;;;;;;;;5027815;28;20582;-67
2021/01/08 02:23:38;;;;;;;4.70;2.13;;;;;;;;;;5027058;28;20252;-68
2021/01/08 02:26:04;;;;;;;3.60;2.60;;;;;;;;;;5030836;28;21446;-67
2021/01/08 02:28:29;;;;;;;4.67;2.30;;;;;;;;;;5028178;28;20188;-68
2021/01/08 02:30:54;;;;;;;4.10;2.30;;;;;;;;;;5032285;28;20175;-68
2021/01/08 02:33:19;;;;;;;3.67;2.40;;;;;;;;;;5029058;28;20197;-68
2021/01/08 02:35:47;;;;;;;4.47;2.00;;;;;;;;;;5020264;28;20190;-68
2021/01/08 02:38:13;;;;;;;3.33;2.53;;;;;;;;;;5040877;28;20276;-68
2021/01/08 02:40:39;;;;;;;2.77;2.00;;;;;;;;;;5050017;28;20187;-68
2021/01/08 02:43:05;;;;;;;2.80;1.53;;;;;;;;;;5050177;28;20194;-68
2021/01/08 02:45:30;;;;;;;2.53;1.60;;;;;;;;;;5019058;28;20296;-67
2021/01/08 02:47:56;;;;;;;1.57;1.40;;;;;;;;;;5030102;28;20627;-67
2021/01/08 02:50:21;;;;;;;4.00;1.73;;;;;;;;;;5030665;28;20216;-68
2021/01/08 02:52:48;;;;;;;5.40;1.97;;;;;;;;;;5029115;28;20193;-67
2021/01/08 02:55:16;;;;;;;2.50;1.33;;;;;;;;;;5029366;28;20220;-67
2021/01/08 02:57:42;;;;;;;2.17;1.57;;;;;;;;;;5028598;28;20662;-67
2021/01/08 03:00:08;;;;;;;2.90;1.40;;;;;;;;;;5030194;28;20269;-68
2021/01/08 03:02:33;;;;;;;1.70;1.27;;;;;;;;;;5026846;28;20198;-67
2021/01/08 03:04:58;;;;;;;2.20;1.33;;;;;;;;;;5035948;28;20472;-68
2021/01/08 03:07:25;;;;;;;1.63;1.20;;;;;;;;;;5031005;28;20207;-67
2021/01/08 03:09:50;;;;;;;1.30;1.20;;;;;;;;;;5029254;28;20433;-67
2021/01/08 03:12:16;;;;;;;2.33;1.20;;;;;;;;;;5026774;28;20226;-67
2021/01/08 03:14:42;;;;;;;2.33;1.33;;;;;;;;;;5023788;28;20185;-68
2021/01/08 03:17:08;;;;;;;1.80;1.40;;;;;;;;;;5030800;28;20198;-68
2021/01/08 03:19:33;;;;;;;1.87;1.30;;;;;;;;;;5026221;28;20189;-68
2021/01/08 03:21:58;;;;;;;1.90;1.50;;;;;;;;;;5027960;28;20604;-68
2021/01/08 03:24:23;;;;;;;1.90;1.40;;;;;;;;;;5036027;28;20216;-68
2021/01/08 03:26:48;;;;;;;2.10;1.23;;;;;;;;;;5029826;28;20272;-68
2021/01/08 03:29:13;;;;;;;1.38;1.17;;;;;;;;;;5037299;28;20231;-67
2021/01/08 03:31:39;;;;;;;2.97;1.57;;;;;;;;;;5033868;28;20189;-67
2021/01/08 03:34:04;;;;;;;1.70;1.47;;;;;;;;;;5036254;28;20194;-68
2021/01/08 03:36:29;;;;;;;2.03;1.50;;;;;;;;;;5041165;28;20173;-68
2021/01/08 03:38:54;;;;;;;2.87;1.73;;;;;;;;;;5031976;28;20189;-68
2021/01/08 03:41:19;;;;;;;4.55;1.80;;;;;;;;;;5029342;28;20209;-68
2021/01/08 03:43:44;;;;;;;2.00;1.60;;;;;;;;;;5032245;28;20209;-67
2021/01/08 03:46:10;;;;;;;1.60;1.30;;;;;;;;;;5033869;28;20792;-68
2021/01/08 03:48:39;;;;;;;1.83;1.53;;;;;;;;;;5030094;28;20238;-67
2021/01/08 03:51:04;;;;;;;2.63;1.67;;;;;;;;;;5031535;28;20316;-67
2021/01/08 03:53:29;;;;;;;1.50;1.30;;;;;;;;;;5035140;28;20807;-68
2021/01/08 03:55:55;;;;;;;2.65;1.83;;;;;;;;;;5031469;28;20942;-68
2021/01/08 03:58:20;;;;;;;3.72;1.88;;;;;;;;;;5031747;28;20457;-68
2021/01/08 04:00:45;;;;;;;2.90;1.40;;;;;;;;;;5031286;28;20245;-67
2021/01/08 04:03:10;;;;;;;1.30;1.20;;;;;;;;;;5030598;28;20284;-68
2021/01/08 04:05:35;;;;;;;4.03;1.53;;;;;;;;;;5033501;28;20713;-68
2021/01/08 04:08:00;;;;;;;2.47;1.50;;;;;;;;;;5031614;28;20186;-67
2021/01/08 04:10:26;;;;;;;2.40;1.70;;;;;;;;;;5015599;28;20591;-68
2021/01/08 04:12:51;;;;;;;1.53;1.17;;;;;;;;;;5030146;28;20231;-68
2021/01/08 04:15:16;;;;;;;2.63;1.60;;;;;;;;;;5038951;28;20185;-67
2021/01/08 04:17:41;;;;;;;2.60;1.80;;;;;;;;;;5030369;28;20212;-68
2021/01/08 04:20:06;;;;;;;2.37;2.07;;;;;;;;;;5031918;28;20192;-68
2021/01/08 04:22:32;;;;;;;2.60;1.80;;;;;;;;;;5030498;28;20284;-68
2021/01/08 04:24:57;;;;;;;2.50;1.60;;;;;;;;;;5031129;28;20299;-68
2021/01/08 04:27:22;;;;;;;1.93;1.40;;;;;;;;;;5030902;28;20186;-67
2021/01/08 04:29:47;;;;;;;2.80;1.60;;;;;;;;;;5036784;28;20174;-67
2021/01/08 04:32:12;;;;;;;2.63;1.80;;;;;;;;;;5015132;28;20198;-68
2021/01/08 04:34:37;;;;;;;2.90;2.10;;;;;;;;;;5032310;28;20189;-67
2021/01/08 04:37:03;;;;;;;3.17;1.60;;;;;;;;;;5023527;28;20185;-67
2021/01/08 04:39:28;;;;;;;2.67;1.83;;;;;;;;;;5030851;28;20265;-67
2021/01/08 04:41:53;;;;;;;1.43;1.33;;;;;;;;;;5033151;28;20701;-68
2021/01/08 04:44:19;;;;;;;2.63;1.67;;;;;;;;;;5031040;28;20205;-68
2021/01/08 04:46:46;;;;;;;3.23;1.87;;;;;;;;;;5029950;28;20205;-68
2021/01/08 04:49:11;;;;;;;4.13;2.17;;;;;;;;;;5030792;28;20210;-68
2021/01/08 04:51:37;;;;;;;3.40;2.00;;;;;;;;;;5031813;28;20269;-68
2021/01/08 04:54:03;;;;;;;2.47;1.70;;;;;;;;;;5030722;28;20670;-68
2021/01/08 04:56:29;;;;;;;4.63;2.23;;;;;;;;;;5029964;28;20462;-67
2021/01/08 04:58:54;;;;;;;3.47;2.10;;;;;;;;;;5028129;28;20195;-67
2021/01/08 05:01:20;;;;;;;2.60;2.00;;;;;;;;;;5030776;28;20539;-68
2021/01/08 05:03:45;;;;;;;3.43;2.20;;;;;;;;;;5031660;28;20205;-68
2021/01/08 05:06:10;;;;;;;3.10;2.20;;;;;;;;;;5034419;28;20598;-68
2021/01/08 05:08:36;;;;;;;4.37;2.60;;;;;;;;;;5030404;28;20273;-68
2021/01/08 05:11:33;;;;;;;2.83;2.27;;;;;;;;;;5041142;28;20202;-68
2021/01/08 05:14:03;;;;;;;3.93;2.10;;;;;;;;;;5005882;28;20305;-67
2021/01/08 05:16:29;;;;;;;2.80;2.17;;;;;;;;;;5029616;28;20209;-68
2021/01/08 05:18:55;;;;;;;3.20;2.50;;;;;;;;;;5030413;28;20705;-67
2021/01/08 05:21:20;;;;;;;6.40;3.70;;;;;;;;;;5031550;28;21182;-68
2021/01/08 05:23:49;;;;;;;3.30;2.87;;;;;;;;;;5023066;28;20222;-67
2021/01/08 05:26:14;;;;;;;4.03;2.73;;;;;;;;;;5029644;28;20210;-68
2021/01/08 05:28:40;;;;;;;3.87;2.83;;;;;;;;;;5029492;28;20204;-67
2021/01/08 05:31:07;;;;;;;2.97;2.27;;;;;;;;;;5038294;28;20174;-67
2021/01/08 05:33:33;;;;;;;4.90;3.00;;;;;;;;;;5048077;28;20205;-68
2021/01/08 05:35:58;;;;;;;4.70;3.13;;;;;;;;;;5032447;28;20188;-67
2021/01/08 05:38:24;;;;;;;4.90;2.80;;;;;;;;;;5030310;28;21062;-68
2021/01/08 05:40:49;;;;;;;3.83;2.90;;;;;;;;;;5033274;28;20181;-67
2021/01/08 05:43:15;;;;;;;3.43;2.73;;;;;;;;;;5029289;28;20232;-68
2021/01/08 05:45:40;;;;;;;4.90;2.97;;;;;;;;;;5031229;28;20557;-67
2021/01/08 05:48:06;;;;;;;5.07;3.30;;;;;;;;;;5031219;28;20420;-67
2021/01/08 05:50:32;;;;;;;3.30;2.50;;;;;;;;;;5034345;28;20178;-68
2021/01/08 05:53:04;;;;;;;5.37;2.90;;;;;;;;;;5029874;28;20280;-67
2021/01/08 05:55:32;;;;;;;3.23;2.40;;;;;;;;;;5042714;28;20200;-68
2021/01/08 05:57:58;;;;;;;6.30;2.93;;;;;;;;;;5046348;28;20193;-68
2021/01/08 06:00:23;;;;;;;5.27;2.80;;;;;;;;;;5013893;28;20182;-67
2021/01/08 06:02:50;;;;;;;5.20;3.50;;;;;;;;;;5029422;28;20212;-68
2021/01/08 06:05:16;;;;;;;5.90;3.10;;;;;;;;;;5029037;28;20607;-68
2021/01/08 06:07:42;;;;;;;4.27;3.20;;;;;;;;;;5028417;28;20733;-67
2021/01/08 06:10:08;;;;;;;4.87;3.17;;;;;;;;;;5030213;28;20761;-68
2021/01/08 06:12:36;;;;;;;5.20;3.23;;;;;;;;;;5026754;28;20585;-68
2021/01/08 06:15:01;;;;;;;4.70;4.00;;;;;;;;;;5036972;28;20182;-67
2021/01/08 06:17:27;;;;;;;6.73;4.13;;;;;;;;;;5040132;28;20189;-68
2021/01/08 06:19:58;;;;;;;5.40;3.23;;;;;;;;;;5037615;28;21819;-68
2021/01/08 06:22:24;;;;;;;4.97;3.60;;;;;;;;;;5031839;28;20241;-67
2021/01/08 06:24:55;;;;;;;5.73;4.23;;;;;;;;;;5030920;28;20755;-67
2021/01/08 06:27:24;;;;;;;5.80;4.03;;;;;;;;;;5012719;28;20266;-68
2021/01/08 06:29:57;;;;;;;4.53;3.53;;;;;;;;;;5030269;28;20620;-67
2021/01/08 06:32:26;;;;;;;6.90;4.47;;;;;;;;;;5035016;28;20212;-67
2021/01/08 06:34:54;;;;;;;6.73;4.27;;;;;;;;;;5034482;28;20185;-68
2021/01/08 06:37:22;;;;;;;5.23;3.53;;;;;;;;;;5031066;28;20201;-67
2021/01/08 06:39:48;;;;;;;9.77;4.50;;;;;;;;;;5015136;28;20185;-68
2021/01/08 06:42:39;;;;;;;5.47;3.80;;;;;;;;;;5029509;28;20201;-67
2021/01/08 06:45:06;;;;;;;4.83;3.80;;;;;;;;;;5024732;28;20711;-67
2021/01/08 06:47:31;;;;;;;8.37;4.00;;;;;;;;;;5019471;28;20721;-68
2021/01/08 06:49:57;;;;;;;8.17;4.43;;;;;;;;;;5034516;28;20194;-67
2021/01/08 06:52:23;;;;;;;5.23;4.17;;;;;;;;;;5029237;28;20687;-68
2021/01/08 06:54:55;;;;;;;7.60;4.13;;;;;;;;;;5028924;28;20205;-67
2021/01/08 06:57:21;;;;;;;5.53;3.60;;;;;;;;;;5027694;28;20632;-67
2021/01/08 06:59:58;;;;;;;3.90;3.30;;;;;;;;;;5031526;28;20189;-67
2021/01/08 07:02:25;;;;;;;5.77;3.80;;;;;;;;;;5031880;28;20212;-68
2021/01/08 07:04:50;;;;;;;4.73;3.60;;;;;;;;;;5028094;28;20208;-67
2021/01/08 07:07:23;;;;;;;4.60;3.73;;;;;;;;;;5027335;28;20213;-68
2021/01/08 07:09:49;;;;;;;4.77;3.57;;;;;;;;;;5027619;28;20186;-68
2021/01/08 07:12:15;;;;;;;5.60;3.80;;;;;;;;;;5029392;28;20216;-67
2021/01/08 07:14:40;;;;;;;5.77;3.77;;;;;;;;;;5028814;28;20181;-67
2021/01/08 07:17:14;;;;;;;3.73;3.27;;;;;;;;;;5028085;28;20540;-67
2021/01/08 07:19:40;;;;;;;4.77;3.40;;;;;;;;;;5030221;28;20199;-67
2021/01/08 07:22:07;;;;;;;5.67;3.73;;;;;;;;;;5032658;28;20177;-67
2021/01/08 07:24:34;;;;;;;5.33;3.77;;;;;;;;;;5031344;28;20328;-68
2021/01/08 07:27:15;;;;;;;6.50;3.80;;;;;;;;;;5013790;28;20555;-67
2021/01/08 07:29:41;;;;;;;7.17;4.57;;;;;;;;;;5030992;28;20199;-68
2021/01/08 07:32:06;;;;;;;8.10;3.93;;;;;;;;;;5028820;28;20647;-68
2021/01/08 07:34:32;;;;;;;6.73;4.07;;;;;;;;;;5029295;28;20181;-68
2021/01/08 07:36:57;;;;;;;5.87;4.13;;;;;;;;;;5030868;28;20178;-68
2021/01/08 07:39:41;;;;;;;5.23;4.43;;;;;;;;;;5026655;28;20246;-67
2021/01/08 07:42:25;;;;;;;7.00;3.90;;;;;;;;;;5027014;28;20187;-68
2021/01/08 07:44:50;;;;;;;4.93;3.50;;;;;;;;;;5030199;28;20300;-68
2021/01/08 07:47:25;;;;;;;5.50;3.80;;;;;;;;;;5027170;28;20260;-67
2021/01/08 07:50:07;;;;;;;5.17;3.53;;;;;;;;;;5030295;28;20215;-67
2021/01/08 07:52:39;;;;;;;5.40;3.80;;;;;;;;;;5028497;28;20206;-68
2021/01/08 07:55:04;;;;;;;5.40;4.10;;;;;;;;;;5018605;28;20252;-68
2021/01/08 07:57:30;;;;;;;4.73;3.80;;;;;;;;;;5027057;28;20598;-68
2021/01/08 07:59:55;;;;;;;7.83;4.40;;;;;;;;;;5027502;28;20173;-68
2021/01/08 08:02:20;;;;;;;6.07;3.83;;;;;;;;;;5028050;28;20225;-68
2021/01/08 08:04:46;;;;;;;7.17;4.90;;;;;;;;;;5029969;28;20205;-68
2021/01/08 08:07:12;;;;;;;8.70;5.27;;;;;;;;;;5029237;28;20196;-68
2021/01/08 08:09:37;;;;;;;8.27;5.13;;;;;;;;;;5031451;28;20182;-68
2021/01/08 08:12:07;;;;;;;8.33;5.27;;;;;;;;;;5031172;28;20883;-68
2021/01/08 08:14:33;;;;;;;6.43;4.30;;;;;;;;;;5039381;28;20288;-68
2021/01/08 08:16:58;;;;;;;8.00;5.33;;;;;;;;;;5030195;28;20698;-68
2021/01/08 08:19:31;;;;;;;7.70;5.13;;;;;;;;;;5032288;28;20177;-68
2021/01/08 08:21:56;;;;;;;6.90;4.67;;;;;;;;;;5032804;28;20679;-68
2021/01/08 08:24:21;;;;;;;5.70;4.07;;;;;;;;;;5036755;28;20178;-68
2021/01/08 08:26:46;;;;;;;5.37;4.40;;;;;;;;;;5029916;28;20622;-68
2021/01/08 08:29:16;;;;;;;7.20;4.20;;;;;;;;;;5030495;28;20181;-68
2021/01/08 08:31:50;;;;;;;7.40;4.83;;;;;;;;;;5016601;28;20183;-69
2021/01/08 08:34:24;;;;;;;9.33;4.60;;;;;;;;;;5035438;28;20182;-69
2021/01/08 08:36:49;;;;;;;7.27;4.43;;;;;;;;;;5034075;28;21885;-69
2021/01/08 08:39:15;;;;;;;6.95;4.88;;;;;;;;;;5042818;28;20185;-67
2021/01/08 08:41:42;;;;;;;8.57;5.37;;;;;;;;;;5051420;28;20177;-68
2021/01/08 08:44:08;;;;;;;6.97;5.03;;;;;;;;;;5043839;28;20202;-68
2021/01/08 08:46:47;;;;;;;9.10;4.60;;;;;;;;;;5035395;28;20256;-67
2021/01/08 08:49:13;;;;;;;7.67;5.10;;;;;;;;;;5031944;28;20252;-68
2021/01/08 08:51:42;;;;;;;6.40;5.17;;;;;;;;;;5031654;28;20185;-68
2021/01/08 08:54:08;;;;;;;7.67;5.80;;;;;;;;;;5038343;28;20204;-68
2021/01/08 08:56:33;;;;;;;8.43;5.40;;;;;;;;;;5031169;28;20650;-68
2021/01/08 08:58:59;;;;;;;8.47;5.60;;;;;;;;;;5033576;28;20187;-68
2021/01/08 09:01:36;;;;;;;6.82;5.38;;;;;;;;;;5030192;28;20182;-68
2021/01/08 09:04:12;;;;;;;6.70;5.20;;;;;;;;;;5015292;28;20626;-69
2021/01/08 09:06:39;;;;;;;9.70;5.43;;;;;;;;;;5036277;28;20334;-68
2021/01/08 09:09:10;;;;;;;8.40;6.00;;;;;;;;;;5031423;28;20266;-68
2021/01/08 09:11:44;;;;;;;7.90;5.93;;;;;;;;;;5029926;28;20268;-68
2021/01/08 09:14:12;;;;;;;7.37;5.67;;;;;;;;;;5019896;28;20754;-68
2021/01/08 09:16:42;;;;;;;8.00;5.83;;;;;;;;;;5030222;28;20248;-68
2021/01/08 09:19:08;;;;;;;6.87;5.97;;;;;;;;;;5031813;28;20185;-68
2021/01/08 09:21:37;;;;;;;7.17;5.33;;;;;;;;;;5033468;28;20179;-68
2021/01/08 09:24:03;;;;;;;7.80;6.07;;;;;;;;;;5037332;28;20222;-68
2021/01/08 09:26:30;;;;;;;7.07;5.17;;;;;;;;;;5030205;28;20300;-68
2021/01/08 09:28:56;;;;;;;7.00;5.17;;;;;;;;;;5030685;28;20174;-68
2021/01/08 09:31:41;;;;;;;8.83;5.80;;;;;;;;;;5033067;28;22396;-68
2021/01/08 09:34:07;;;;;;;7.30;4.90;;;;;;;;;;5034363;28;20339;-68
2021/01/08 09:36:33;;;;;;;6.80;5.40;;;;;;;;;;5036590;28;20234;-68
2021/01/08 09:38:59;;;;;;;6.20;5.17;;;;;;;;;;5032236;28;20185;-68
2021/01/08 09:41:25;;;;;;;7.37;5.60;;;;;;;;;;5033378;28;20196;-68
2021/01/08 09:43:59;;;;;;;9.10;5.37;;;;;;;;;;5028651;28;20766;-68
2021/01/08 09:46:25;;;;;;;5.17;3.87;;;;;;;;;;5038363;28;20209;-68
2021/01/08 09:48:50;;;;;;;5.63;3.70;;;;;;;;;;5038089;28;20186;-69
2021/01/08 09:51:15;;;;;;;4.33;3.37;;;;;;;;;;5040497;28;20550;-69
2021/01/08 09:53:40;;;;;;;3.13;2.70;;;;;;;;;;5031913;28;20283;-68
2021/01/08 09:56:12;;;;;;;5.10;3.77;;;;;;;;;;5033283;28;20678;-68
2021/01/08 09:58:38;;;;;;;3.27;2.90;;;;;;;;;;5029913;28;20181;-69
2021/01/08 10:01:03;;;;;;;3.10;2.60;;;;;;;;;;5031613;28;20205;-69
2021/01/08 10:03:28;;;;;;;4.80;2.83;;;;;;;;;;5013045;28;20288;-68
2021/01/08 10:06:09;;;;;;;3.40;2.53;;;;;;;;;;5035756;28;20737;-68
2021/01/08 10:08:34;;;;;;;3.27;2.00;;;;;;;;;;5031701;28;20597;-69
2021/01/08 10:10:59;;;;;;;2.33;1.80;;;;;;;;;;5030590;28;20177;-68
2021/01/08 10:13:25;;;;;;;3.43;2.17;;;;;;;;;;5035238;28;20620;-68
2021/01/08 10:15:51;;;;;;;2.83;2.10;;;;;;;;;;5029060;28;20272;-68
2021/01/08 10:18:20;;;;;;;3.23;2.33;;;;;;;;;;5030823;28;20272;-69
2021/01/08 10:20:49;;;;;;;3.20;1.63;;;;;;;;;;5030878;28;20289;-68
2021/01/08 10:23:15;;;;;;;1.93;1.50;;;;;;;;;;5035780;28;20293;-69
2021/01/08 10:25:41;;;;;;;3.50;1.60;;;;;;;;;;5028739;28;20292;-69
2021/01/08 10:28:17;;;;;;;1.93;1.27;;;;;;;;;;5029442;28;20187;-68
2021/01/08 10:30:42;;;;;;;1.93;1.40;;;;;;;;;;5031257;28;20202;-68
2021/01/08 10:33:08;;;;;;;2.10;1.37;;;;;;;;;;5027003;28;20345;-68
2021/01/08 10:35:33;;;;;;;2.33;1.50;;;;;;;;;;5035068;28;20173;-68
2021/01/08 10:37:59;;;;;;;1.20;1.10;;;;;;;;;;5030354;28;20224;-69
2021/01/08 10:40:24;;;;;;;2.33;1.30;;;;;;;;;;5039557;28;20181;-68
2021/01/08 10:42:52;;;;;;;1.63;1.50;;;;;;;;;;5027770;28;20211;-68
2021/01/08 10:45:18;;;;;;;1.83;1.33;;;;;;;;;;5029283;28;20289;-68
2021/01/08 10:47:43;;;;;;;1.70;1.23;;;;;;;;;;5031579;28;20185;-69
2021/01/08 10:50:09;;;;;;;1.93;1.10;;;;;;;;;;5023883;28;20192;-68
2021/01/08 10:52:34;;;;;;;1.63;1.30;;;;;;;;;;5025673;28;20201;-69
2021/01/08 10:55:00;;;;;;;1.48;1.20;;;;;;;;;;5033395;28;20197;-69
2021/01/08 10:57:25;;;;;;;1.10;1.00;;;;;;;;;;5027465;28;20174;-68
2021/01/08 10:59:50;;;;;;;1.10;1.00;;;;;;;;;;5032545;28;20181;-69
2021/01/08 11:02:16;;;;;;;0.97;0.80;;;;;;;;;;5011539;28;20658;-69
2021/01/08 11:04:41;;;;;;;1.10;1.00;;;;;;;;;;5032687;28;20197;-68
2021/01/08 11:07:07;;;;;;;1.10;0.90;;;;;;;;;;5037795;28;20239;-68
2021/01/08 11:09:32;;;;;;;0.80;0.73;;;;;;;;;;5027976;28;20185;-69
2021/01/08 11:11:57;;;;;;;2.53;0.90;;;;;;;;;;5029129;28;20649;-67
2021/01/08 11:14:23;;;;;;;2.67;1.03;;;;;;;;;;5034683;28;20181;-67
2021/01/08 11:16:48;;;;;;;1.00;0.73;;;;;;;;;;5031940;28;20186;-67
2021/01/08 11:19:13;;;;;;;1.77;1.00;;;;;;;;;;5028827;28;20193;-67
2021/01/08 11:21:38;;;;;;;1.10;1.00;;;;;;;;;;5031415;28;20182;-67
2021/01/08 11:24:03;;;;;;;1.30;1.00;;;;;;;;;;5031614;28;20212;-67
2021/01/08 11:26:29;;;;;;;1.03;0.93;;;;;;;;;;5026842;28;20488;-68
2021/01/08 11:28:55;;;;;;;2.40;1.37;;;;;;;;;;5030086;28;20205;-67
2021/01/08 11:31:20;;;;;;;1.10;1.00;;;;;;;;;;5030824;28;20283;-67
2021/01/08 11:33:45;;;;;;;1.20;1.10;;;;;;;;;;5029078;28;20285;-67
2021/01/08 11:36:17;;;;;;;1.50;1.30;;;;;;;;;;5020903;28;20611;-67
2021/01/08 11:38:42;;;;;;;1.57;1.33;;;;;;;;;;5028151;28;20591;-67
2021/01/08 11:41:07;;;;;;;2.17;1.57;;;;;;;;;;5028434;28;20188;-67
2021/01/08 11:43:32;;;;;;;1.50;1.40;;;;;;;;;;5014161;28;20201;-67
2021/01/08 11:45:58;;;;;;;1.60;1.50;;;;;;;;;;5032624;28;20212;-67
2021/01/08 11:48:23;;;;;;;1.95;1.38;;;;;;;;;;5019044;28;20626;-68
2021/01/08 11:50:48;;;;;;;2.90;1.80;;;;;;;;;;5038078;28;20184;-67
2021/01/08 11:53:16;;;;;;;2.03;1.83;;;;;;;;;;5016751;28;20205;-67
2021/01/08 11:55:43;;;;;;;1.90;1.67;;;;;;;;;;5023393;28;20185;-67
2021/01/08 11:58:08;;;;;;;2.47;2.10;;;;;;;;;;5030238;28;20193;-68
2021/01/08 12:00:33;;;;;;;2.07;1.87;;;;;;;;;;5032513;28;20551;-68
2021/01/08 12:02:59;;;;;;;1.67;1.57;;;;;;;;;;5029459;28;20241;-67
2021/01/08 12:05:24;;;;;;;2.17;1.67;;;;;;;;;;5033176;28;20293;-67
2021/01/08 12:07:50;;;;;;;3.37;1.80;;;;;;;;;;5031840;28;20650;-67
2021/01/08 12:10:15;;;;;;;2.70;1.50;;;;;;;;;;5033784;28;20670;-68
2021/01/08 12:12:40;;;;;;;1.57;1.47;;;;;;;;;;5036616;28;20202;-68
2021/01/08 12:15:06;;;;;;;3.40;2.03;;;;;;;;;;5035398;28;20185;-67
2021/01/08 12:17:31;;;;;;;2.67;1.73;;;;;;;;;;5030617;28;20186;-67
2021/01/08 12:19:56;;;;;;;2.30;1.70;;;;;;;;;;5032889;28;20639;-68
2021/01/08 12:22:21;;;;;;;3.93;1.70;;;;;;;;;;5038895;28;20608;-68
2021/01/08 12:24:46;;;;;;;2.17;1.93;;;;;;;;;;5016274;28;20206;-68
2021/01/08 12:27:12;;;;;;;2.47;2.20;;;;;;;;;;5033741;28;20200;-68
2021/01/08 12:29:37;;;;;;;2.27;1.60;;;;;;;;;;5034921;28;20205;-67
2021/01/08 12:32:03;;;;;;;1.40;1.30;;;;;;;;;;5029953;28;20214;-67
2021/01/08 12:34:28;;;;;;;1.77;1.50;;;;;;;;;;5034085;28;20184;-67
2021/01/08 12:36:53;;;;;;;1.50;1.40;;;;;;;;;;5036459;28;20243;-67
2021/01/08 12:39:19;;;;;;;1.10;1.10;;;;;;;;;;5021699;28;20582;-67
2021/01/08 12:41:44;;;;;;;1.70;1.37;;;;;;;;;;5017871;28;20182;-67
2021/01/08 12:44:10;;;;;;;1.93;1.13;;;;;;;;;;5030854;28;20197;-70
2021/01/08 12:46:35;;;;;;;1.70;1.50;;;;;;;;;;5030172;28;20198;-67
2021/01/08 12:49:05;;;;;;;2.10;1.33;;;;;;;;;;5034835;28;20185;-67
2021/01/08 12:51:30;;;;;;;2.17;1.97;;;;;;;;;;5030451;28;20181;-67
2021/01/08 12:53:55;;;;;;;2.00;1.80;;;;;;;;;;5016786;28;20205;-67
2021/01/08 12:56:26;;;;;;;2.00;1.80;;;;;;;;;;5032820;28;20655;-67
2021/01/08 12:58:51;;;;;;;2.00;1.67;;;;;;;;;;5031333;28;20193;-67
2021/01/08 13:01:16;;;;;;;3.10;1.60;;;;;;;;;;5032635;28;20186;-68
2021/01/08 13:03:42;;;;;;;4.40;1.77;;;;;;;;;;5031662;28;20755;-68
2021/01/08 13:06:07;;;;;;;2.07;1.87;;;;;;;;;;5031585;28;20197;-68
2021/01/08 13:08:32;;;;;;;2.60;2.10;;;;;;;;;;5040678;28;20614;-68
2021/01/08 13:10:57;;;;;;;2.03;1.80;;;;;;;;;;5030839;28;20617;-69
2021/01/08 13:13:23;;;;;;;1.37;1.27;;;;;;;;;;5028541;28;20714;-68
2021/01/08 13:15:48;;;;;;;2.10;1.03;;;;;;;;;;5029797;28;20169;-67
2021/01/08 13:18:13;;;;;;;1.20;1.10;;;;;;;;;;5031584;28;20189;-70
2021/01/08 13:20:39;;;;;;;0.83;0.83;;;;;;;;;;5035102;28;20186;-67
2021/01/08 13:23:04;;;;;;;1.60;1.00;;;;;;;;;;5036805;28;20229;-67
2021/01/08 13:25:29;;;;;;;1.87;1.23;;;;;;;;;;5034576;28;20210;-67
2021/01/08 13:27:54;;;;;;;1.03;0.90;;;;;;;;;;5031365;28;20179;-67
2021/01/08 13:30:20;;;;;;;1.27;1.00;;;;;;;;;;5028829;28;20181;-67
2021/01/08 13:32:45;;;;;;;2.47;2.00;;;;;;;;;;5044028;28;20193;-70
2021/01/08 13:35:10;;;;;;;1.23;1.13;;;;;;;;;;5041849;28;20613;-67
2021/01/08 13:37:37;;;;;;;1.40;1.30;;;;;;;;;;5034495;28;20451;-70
2021/01/08 13:40:03;;;;;;;1.63;1.43;;;;;;;;;;5014328;28;20189;-67
2021/01/08 13:42:28;;;;;;;1.30;1.20;;;;;;;;;;5031636;28;20277;-67
2021/01/08 13:44:53;;;;;;;1.03;0.90;;;;;;;;;;5032549;28;20205;-67
2021/01/08 13:47:18;;;;;;;1.30;1.10;;;;;;;;;;5030111;28;20184;-68
2021/01/08 13:49:43;;;;;;;1.47;1.30;;;;;;;;;;5034163;28;20587;-67
2021/01/08 13:52:08;;;;;;;1.53;1.27;;;;;;;;;;5029979;28;20220;-68
2021/01/08 13:54:35;;;;;;;1.47;1.37;;;;;;;;;;5038333;28;20246;-67
2021/01/08 13:57:00;;;;;;;1.40;1.30;;;;;;;;;;5033274;28;20178;-67
2021/01/08 13:59:25;;;;;;;2.07;1.30;;;;;;;;;;5032262;28;20174;-67
2021/01/08 14:01:50;;;;;;;1.50;1.40;;;;;;;;;;5030083;28;20181;-67
2021/01/08 14:04:16;;;;;;;2.23;1.70;;;;;;;;;;5030762;28;20413;-67
2021/01/08 14:06:42;;;;;;;2.20;1.60;;;;;;;;;;5030173;28;20240;-67
2021/01/08 14:09:08;;;;;;;3.60;1.53;;;;;;;;;;5029242;28;20594;-67
2021/01/08 14:11:34;;;;;;;2.20;2.00;;;;;;;;;;5029011;28;20181;-67
2021/01/08 14:14:00;;;;;;;2.00;1.50;;;;;;;;;;5037637;28;20917;-67
2021/01/08 14:16:26;;;;;;;1.37;1.27;;;;;;;;;;5030639;28;20219;-67
2021/01/08 14:18:51;;;;;;;1.57;1.47;;;;;;;;;;5028161;28;20300;-68
2021/01/08 14:21:17;;;;;;;1.40;1.30;;;;;;;;;;5030205;28;20570;-67
2021/01/08 14:23:44;;;;;;;1.50;1.40;;;;;;;;;;5035010;28;20262;-68
2021/01/08 14:26:09;;;;;;;1.60;1.40;;;;;;;;;;5031922;28;20217;-68
2021/01/08 14:28:34;;;;;;;1.27;1.17;;;;;;;;;;5029034;28;20181;-67
2021/01/08 14:30:59;;;;;;;3.43;1.60;;;;;;;;;;5031595;28;20193;-67
2021/01/08 14:33:24;;;;;;;1.53;1.43;;;;;;;;;;5027404;28;20202;-68
2021/01/08 14:35:52;;;;;;;1.70;1.60;;;;;;;;;;5015721;28;20678;-67
2021/01/08 14:38:18;;;;;;;3.00;1.30;;;;;;;;;;5036634;28;20689;-68
2021/01/08 14:40:43;;;;;;;2.50;2.23;;;;;;;;;;5029588;28;20309;-68